KSJT

San Angelo Regional / Mathis Field Airport

San Angelo, Texas, USA
KSJT 141720Z 1418/1518 33019G27KT P6SM FEW200 FM150000 31009KT P6SM SKC FM150800 27006KT P6SM FEW250
Issued Valid From Valid To
Dec-14 @ 17:20 UTC
(5 hours ago)
Dec-14 @ 18:00 UTC
(4 hours ago)
Dec-15 @ 18:00 UTC
(in 20 hours)
Dec-14 @ 18:00 to Dec-15 @ 00:00
KSJT 141720Z 1418/1518 33019G27KT P6SM FEW200
Wind Visibility Clouds
330° at 19 knots
 Gusting to 27 knots
Greater than 6 miles
  • Few at 20,000' AGL
From Dec-15 @ 00:00 to Dec-15 @ 08:00
FM150000 31009KT P6SM SKC
Wind Visibility Clouds
310° at 9 knots Greater than 6 miles
  • Clear skies
From Dec-15 @ 08:00 to Dec-15 @ 18:00
FM150800 27006KT P6SM FEW250
Wind Visibility Clouds
270° at 6 knots Greater than 6 miles
  • Few at 25,000' AGL
KSJT 141720Z 1418/1518 33019G27KT P6SM FEW200 FM150000 31009KT P6SM SKC FM150800 27006KT P6SM FEW250
Issued Dec-14 @ 17:20 UTC
(5 hours ago)
Valid From Dec-14 @ 18:00 UTC
(4 hours ago)
Valid To Dec-15 @ 18:00 UTC
(in 20 hours)
Dec-14 @ 18:00 - Dec-15 @ 00:00
Wind Visibility
330° at 19 knots
 Gusting to 27 knots
Greater than 6 miles
Clouds
  • Few at 20,000' AGL
From Dec-15 @ 00:00 - Dec-15 @ 08:00
Wind Visibility
310° at 9 knots Greater than 6 miles
Clouds
  • Clear skies
From Dec-15 @ 08:00 - Dec-15 @ 18:00
Wind Visibility
270° at 6 knots Greater than 6 miles
Clouds
  • Few at 25,000' AGL